Time;durP1;ratioP1;P1;durP2;ratioP2;P2;SDS_P1;SDS_P2;PMS_P1;PMS_P2;Temp;Humidity;BMP_temperature;BMP_pressure;BME280_temperature;BME280_humidity;BME280_pressure;Samples;Min_cycle;Max_cycle;Signal;HPM_P1;HPM_P2
2021/04/17 00:01:33;;;;;;;7.65;4.68;;;5.90;64.90;;;;;;5093178;28;20395;-77
2021/04/17 00:03:59;;;;;;;13.98;4.40;;;5.80;65.00;;;;;;5092742;28;20393;-78
2021/04/17 00:06:24;;;;;;;12.38;4.40;;;5.70;65.30;;;;;;5074417;28;20734;-77
2021/04/17 00:08:50;;;;;;;9.48;4.50;;;5.70;65.60;;;;;;5074214;28;20382;-77
2021/04/17 00:11:16;;;;;;;8.60;4.37;;;5.60;66.30;;;;;;5092445;28;20385;-78
2021/04/17 00:13:42;;;;;;;9.10;4.70;;;5.80;65.50;;;;;;5092610;28;20417;-77
2021/04/17 00:16:08;;;;;;;8.98;4.28;;;5.80;65.70;;;;;;5092324;28;20465;-77
2021/04/17 00:18:33;;;;;;;7.87;4.07;;;5.80;65.80;;;;;;5092177;28;20814;-78
2021/04/17 00:20:59;;;;;;;10.10;4.30;;;5.70;66.80;;;;;;5092121;28;20390;-78
2021/04/17 00:23:25;;;;;;;10.83;4.30;;;5.70;66.30;;;;;;5092697;28;20388;-78
2021/04/17 00:25:50;;;;;;;8.13;4.05;;;5.70;66.50;;;;;;5092250;28;20374;-78
2021/04/17 00:28:16;;;;;;;9.32;4.05;;;5.80;66.00;;;;;;5073826;28;20425;-78
2021/04/17 00:30:41;;;;;;;7.43;4.20;;;5.70;66.00;;;;;;5073667;28;20389;-78
2021/04/17 00:33:07;;;;;;;5.80;3.67;;;5.70;65.90;;;;;;5092492;28;20439;-79
2021/04/17 00:35:32;;;;;;;7.47;4.20;;;5.60;66.30;;;;;;5091922;28;20381;-78
2021/04/17 00:37:58;;;;;;;9.77;4.37;;;5.70;66.40;;;;;;5091874;28;20777;-78
2021/04/17 00:40:23;;;;;;;7.10;4.07;;;5.60;66.60;;;;;;5091772;28;20476;-78
2021/04/17 00:42:49;;;;;;;8.23;3.88;;;5.60;66.70;;;;;;5092238;28;20402;-78
2021/04/17 00:45:14;;;;;;;5.75;3.70;;;5.60;66.60;;;;;;5073343;28;20409;-78
2021/04/17 00:47:43;;;;;;;13.23;4.50;;;5.60;67.00;;;;;;5091433;28;20390;-77
2021/04/17 00:50:10;;;;;;;6.88;4.13;;;5.60;66.80;;;;;;5092159;28;20482;-78
2021/04/17 00:52:36;;;;;;;9.60;3.95;;;5.60;66.70;;;;;;5091616;28;20378;-77
2021/04/17 00:55:02;;;;;;;8.52;3.90;;;5.50;67.00;;;;;;5091973;28;20516;-78
2021/04/17 00:57:28;;;;;;;9.27;3.90;;;5.50;66.90;;;;;;5072959;28;20458;-78
2021/04/17 00:59:54;;;;;;;6.35;3.45;;;5.50;67.10;;;;;;5092013;28;20801;-78
2021/04/17 01:02:28;;;;;;;8.50;3.70;;;5.50;66.90;;;;;;5091421;28;20382;-78
2021/04/17 01:04:55;;;;;;;9.27;3.88;;;5.60;66.80;;;;;;5073573;28;20382;-78
2021/04/17 01:07:40;;;;;;;5.32;3.80;;;5.50;67.20;;;;;;5090970;28;20386;-78
2021/04/17 01:10:30;;;;;;;7.20;3.47;;;5.50;67.30;;;;;;5073606;28;20738;-78
2021/04/17 01:12:56;;;;;;;7.45;3.83;;;5.50;67.30;;;;;;5091729;28;20805;-78
2021/04/17 01:15:24;;;;;;;8.40;3.40;;;5.40;67.60;;;;;;5073440;28;20386;-78
2021/04/17 01:17:52;;;;;;;8.80;3.85;;;5.40;68.00;;;;;;5091216;28;20451;-78
2021/04/17 01:20:33;;;;;;;9.50;3.93;;;5.40;68.20;;;;;;5091458;28;20399;-77
2021/04/17 01:23:27;;;;;;;8.60;3.70;;;5.40;68.40;;;;;;5091451;28;20382;-78
2021/04/17 01:25:57;;;;;;;6.85;3.72;;;5.30;68.20;;;;;;5091244;28;20401;-78
2021/04/17 01:28:25;;;;;;;7.97;3.60;;;5.30;68.60;;;;;;5090457;28;20476;-78
2021/04/17 01:30:52;;;;;;;6.75;3.60;;;5.30;68.80;;;;;;5091265;28;20423;-78
2021/04/17 01:33:22;;;;;;;9.02;3.58;;;5.30;68.60;;;;;;5072609;28;20908;-78
2021/04/17 01:35:49;;;;;;;6.22;3.35;;;5.20;68.50;;;;;;5091213;28;20374;-78
2021/04/17 01:38:25;;;;;;;7.10;3.83;;;5.10;69.40;;;;;;5090028;28;20405;-78
2021/04/17 01:40:57;;;;;;;7.47;3.92;;;5.20;69.20;;;;;;5071802;28;20382;-77
2021/04/17 01:43:25;;;;;;;7.82;3.47;;;5.10;69.30;;;;;;5089976;28;20394;-77
2021/04/17 01:45:53;;;;;;;7.13;3.53;;;5.00;69.80;;;;;;5091165;28;20734;-77
2021/04/17 01:48:21;;;;;;;5.73;3.43;;;5.10;69.60;;;;;;5090058;28;20390;-78
2021/04/17 01:50:48;;;;;;;8.82;3.55;;;5.10;69.50;;;;;;5090813;28;20809;-77
2021/04/17 01:53:19;;;;;;;8.50;3.47;;;5.00;69.80;;;;;;5072666;28;20453;-77
2021/04/17 01:55:46;;;;;;;12.90;3.83;;;5.00;69.80;;;;;;5071774;28;20450;-77
2021/04/17 01:58:16;;;;;;;7.50;3.60;;;5.00;69.90;;;;;;5071796;28;20406;-77
2021/04/17 02:00:41;;;;;;;6.63;3.17;;;5.00;70.00;;;;;;5090881;28;20393;-78
2021/04/17 02:03:07;;;;;;;6.60;3.40;;;4.90;70.50;;;;;;5090532;28;20525;-77
2021/04/17 02:05:33;;;;;;;7.45;3.85;;;4.80;70.90;;;;;;5072339;28;20386;-77
2021/04/17 02:07:58;;;;;;;9.10;3.90;;;4.80;70.90;;;;;;5090196;28;20468;-77
2021/04/17 02:10:24;;;;;;;6.78;3.60;;;4.80;71.00;;;;;;5090469;28;20857;-77
2021/04/17 02:12:50;;;;;;;7.57;3.53;;;4.90;70.70;;;;;;5072644;28;20393;-77
2021/04/17 02:15:16;;;;;;;6.73;3.10;;;4.90;70.70;;;;;;5090399;28;20476;-77
2021/04/17 02:17:56;;;;;;;9.17;4.03;;;4.70;71.10;;;;;;5089733;28;20410;-78
2021/04/17 02:20:37;;;;;;;7.55;3.58;;;4.70;70.80;;;;;;5090560;28;20381;-78
2021/04/17 02:23:03;;;;;;;6.20;3.30;;;4.60;71.70;;;;;;5090149;28;20378;-78
2021/04/17 02:25:30;;;;;;;7.88;3.33;;;4.50;71.80;;;;;;5072490;28;20711;-78
2021/04/17 02:27:55;;;;;;;7.43;3.67;;;4.50;71.90;;;;;;5089344;28;20386;-78
2021/04/17 02:30:21;;;;;;;7.95;4.05;;;4.50;72.00;;;;;;5072239;28;20432;-78
2021/04/17 02:32:47;;;;;;;8.63;3.90;;;4.30;72.50;;;;;;5090019;28;20374;-78
2021/04/17 02:35:13;;;;;;;6.25;3.60;;;4.40;72.70;;;;;;5089756;28;20374;-77
2021/04/17 02:37:38;;;;;;;9.30;3.47;;;4.30;72.90;;;;;;5089430;28;20475;-78
2021/04/17 02:40:04;;;;;;;9.33;3.60;;;4.40;73.00;;;;;;5090520;28;20480;-78
2021/04/17 02:42:30;;;;;;;5.55;3.47;;;4.30;72.90;;;;;;5090025;28;20781;-78
2021/04/17 02:44:55;;;;;;;8.35;3.58;;;4.40;72.90;;;;;;5090054;28;20427;-78
2021/04/17 02:47:21;;;;;;;8.33;3.50;;;4.30;73.00;;;;;;5089928;28;20420;-77
2021/04/17 02:49:46;;;;;;;7.17;3.70;;;4.20;73.10;;;;;;5089995;28;20431;-78
2021/04/17 02:52:12;;;;;;;8.33;3.60;;;4.20;73.20;;;;;;5090210;28;20382;-78
2021/04/17 02:54:37;;;;;;;7.77;3.70;;;4.20;73.00;;;;;;5089858;28;20381;-78
2021/04/17 02:57:03;;;;;;;5.50;3.50;;;4.20;72.70;;;;;;5090225;28;20394;-78
2021/04/17 02:59:29;;;;;;;6.47;3.70;;;4.20;73.00;;;;;;5089867;28;20519;-78
2021/04/17 03:01:55;;;;;;;7.97;3.40;;;4.20;73.10;;;;;;5090164;28;20476;-78
2021/04/17 03:04:20;;;;;;;8.25;3.55;;;4.00;73.20;;;;;;5089725;28;20722;-78
2021/04/17 03:06:46;;;;;;;8.80;3.67;;;3.90;74.00;;;;;;5072557;28;20896;-78
2021/04/17 03:09:11;;;;;;;7.23;3.53;;;3.90;74.40;;;;;;5093700;28;20669;-78
2021/04/17 03:11:37;;;;;;;6.57;3.30;;;3.90;74.40;;;;;;5093747;28;20936;-78
2021/04/17 03:14:03;;;;;;;8.13;4.07;;;3.90;74.10;;;;;;5093827;28;20374;-78
2021/04/17 03:16:28;;;;;;;6.37;3.50;;;3.80;74.60;;;;;;5093368;28;20755;-77
2021/04/17 03:18:54;;;;;;;8.40;3.70;;;3.90;74.30;;;;;;5093624;28;20457;-78
2021/04/17 03:21:20;;;;;;;11.20;3.77;;;3.80;74.80;;;;;;5093599;28;20773;-78
2021/04/17 03:23:45;;;;;;;6.03;3.57;;;3.60;75.30;;;;;;5094014;28;20401;-78
2021/04/17 03:26:11;;;;;;;4.63;3.30;;;3.60;75.30;;;;;;5093691;28;20846;-78
2021/04/17 03:28:36;;;;;;;9.43;3.67;;;3.60;75.60;;;;;;5093184;28;20472;-77
2021/04/17 03:31:02;;;;;;;8.40;4.17;;;3.60;75.60;;;;;;5093390;28;20378;-77
2021/04/17 03:33:28;;;;;;;5.93;3.55;;;3.40;75.70;;;;;;5093705;28;20394;-78
2021/04/17 03:35:53;;;;;;;7.80;4.03;;;3.40;75.90;;;;;;5075076;28;20440;-78
2021/04/17 03:38:20;;;;;;;8.27;4.10;;;3.40;76.00;;;;;;5093174;28;20406;-78
2021/04/17 03:40:46;;;;;;;7.75;3.70;;;3.40;76.60;;;;;;5074794;28;20809;-77
2021/04/17 03:43:12;;;;;;;11.85;4.00;;;3.40;76.30;;;;;;5093293;28;20413;-77
2021/04/17 03:45:37;;;;;;;9.00;3.97;;;3.30;76.80;;;;;;5093340;28;20375;-78
2021/04/17 03:48:04;;;;;;;7.57;3.80;;;3.40;76.60;;;;;;5092482;28;20386;-78
2021/04/17 03:50:29;;;;;;;7.13;3.70;;;3.20;76.90;;;;;;5075230;28;20396;-78
2021/04/17 03:52:55;;;;;;;9.80;3.85;;;3.20;77.20;;;;;;5074807;28;20381;-78
2021/04/17 03:55:20;;;;;;;6.90;3.47;;;3.10;77.50;;;;;;5074726;28;20742;-78
2021/04/17 03:57:46;;;;;;;6.17;3.37;;;3.10;76.90;;;;;;5092438;28;20409;-78
2021/04/17 04:00:17;;;;;;;8.85;3.83;;;3.10;76.70;;;;;;5092270;28;20401;-78
2021/04/17 04:02:43;;;;;;;8.18;3.70;;;3.10;76.90;;;;;;5093008;28;20370;-78
2021/04/17 04:05:09;;;;;;;7.47;3.63;;;3.10;76.90;;;;;;5092816;28;20378;-78
2021/04/17 04:07:35;;;;;;;9.45;4.38;;;3.00;77.20;;;;;;5092241;28;20382;-78
2021/04/17 04:10:00;;;;;;;12.48;4.45;;;3.00;77.50;;;;;;5092812;28;20723;-78
2021/04/17 04:12:26;;;;;;;7.88;3.80;;;2.90;77.70;;;;;;5074424;28;20391;-78
2021/04/17 04:14:51;;;;;;;9.60;3.90;;;2.90;77.40;;;;;;5092634;28;20545;-78
2021/04/17 04:17:17;;;;;;;12.27;4.68;;;3.00;77.40;;;;;;5092010;28;20387;-78
2021/04/17 04:19:42;;;;;;;8.65;4.05;;;2.90;77.40;;;;;;5091823;28;20374;-78
2021/04/17 04:22:08;;;;;;;8.95;3.80;;;2.80;77.80;;;;;;5092427;28;20385;-78
2021/04/17 04:24:34;;;;;;;7.82;4.20;;;2.60;78.30;;;;;;5092626;28;20730;-78
2021/04/17 04:26:59;;;;;;;7.70;4.30;;;2.70;78.60;;;;;;5091886;28;20414;-78
2021/04/17 04:29:25;;;;;;;8.37;4.17;;;2.70;78.30;;;;;;5092809;28;20374;-79
2021/04/17 04:31:50;;;;;;;8.10;4.07;;;2.80;78.00;;;;;;5091780;28;20927;-78
2021/04/17 04:34:16;;;;;;;11.40;4.47;;;2.70;78.30;;;;;;5092374;28;20374;-79
2021/04/17 04:36:41;;;;;;;9.60;4.50;;;2.80;78.00;;;;;;5073622;28;20386;-78
2021/04/17 04:39:07;;;;;;;7.83;4.10;;;2.70;77.60;;;;;;5091670;28;20901;-78
2021/04/17 04:41:35;;;;;;;7.17;3.70;;;2.70;77.90;;;;;;5092169;28;20396;-78
2021/04/17 04:44:03;;;;;;;9.10;4.07;;;2.70;78.00;;;;;;5091830;28;20426;-78
2021/04/17 04:46:29;;;;;;;9.93;3.92;;;2.60;78.50;;;;;;5073587;28;20469;-77
2021/04/17 04:48:55;;;;;;;11.75;4.28;;;2.80;78.40;;;;;;5091639;28;20378;-78
2021/04/17 04:51:21;;;;;;;10.63;4.47;;;2.80;78.10;;;;;;5091934;28;20390;-78
2021/04/17 04:53:46;;;;;;;12.75;3.90;;;2.60;78.50;;;;;;5091962;28;20432;-78
2021/04/17 04:56:12;;;;;;;9.30;4.25;;;2.70;78.90;;;;;;5074109;28;20407;-79
2021/04/17 04:58:37;;;;;;;9.05;4.20;;;2.70;78.80;;;;;;5073123;28;20822;-78
2021/04/17 05:01:03;;;;;;;8.05;4.18;;;2.50;79.90;;;;;;5091808;28;20405;-78
2021/04/17 05:03:28;;;;;;;8.73;4.05;;;2.70;78.80;;;;;;5091336;28;20370;-78
2021/04/17 05:05:54;;;;;;;8.97;3.90;;;2.80;78.40;;;;;;5073403;28;20386;-78
2021/04/17 05:08:19;;;;;;;8.40;4.20;;;2.80;78.60;;;;;;5091512;28;20394;-78
2021/04/17 05:10:45;;;;;;;12.17;4.57;;;2.80;78.80;;;;;;5091729;28;20382;-78
2021/04/17 05:13:10;;;;;;;14.87;4.40;;;2.70;79.40;;;;;;5092104;28;20686;-78
2021/04/17 05:15:36;;;;;;;8.70;4.27;;;2.90;78.90;;;;;;5073655;28;20730;-78
2021/04/17 05:18:01;;;;;;;11.00;4.40;;;2.90;78.80;;;;;;5073011;28;20402;-79
2021/04/17 05:20:27;;;;;;;9.90;5.00;;;2.90;79.10;;;;;;5091394;28;20435;-79
2021/04/17 05:22:52;;;;;;;11.75;4.72;;;2.90;78.90;;;;;;5091478;28;20946;-78
2021/04/17 05:25:18;;;;;;;10.68;4.63;;;2.90;79.20;;;;;;5091592;28;20916;-78
2021/04/17 05:27:43;;;;;;;12.38;5.03;;;2.90;79.00;;;;;;5090961;28;20382;-78
2021/04/17 05:30:09;;;;;;;9.52;4.50;;;3.00;79.00;;;;;;5091251;28;20507;-78
2021/04/17 05:32:35;;;;;;;9.63;4.70;;;3.00;79.00;;;;;;5072984;28;20430;-78
2021/04/17 05:35:00;;;;;;;11.00;5.05;;;3.00;79.00;;;;;;5091178;28;20795;-78
2021/04/17 05:37:26;;;;;;;9.05;4.53;;;3.00;79.00;;;;;;5088923;28;20866;-78
2021/04/17 05:39:51;;;;;;;12.20;5.55;;;3.00;78.80;;;;;;5091379;28;20396;-78
2021/04/17 05:42:17;;;;;;;9.00;4.72;;;3.10;79.00;;;;;;5090890;28;20477;-78
2021/04/17 05:44:43;;;;;;;10.05;4.93;;;3.20;78.60;;;;;;5073159;28;20870;-78
2021/04/17 05:47:08;;;;;;;10.32;5.03;;;3.20;78.00;;;;;;5090535;28;20731;-78
2021/04/17 05:49:34;;;;;;;13.10;5.68;;;3.20;78.10;;;;;;5090742;28;20424;-78
2021/04/17 05:52:00;;;;;;;15.02;6.68;;;3.20;78.20;;;;;;5090666;28;20439;-78
2021/04/17 05:54:25;;;;;;;11.85;6.47;;;3.30;77.80;;;;;;5091096;28;20393;-78
2021/04/17 05:56:51;;;;;;;14.50;5.90;;;3.40;77.60;;;;;;5071769;28;20466;-78
2021/04/17 05:59:16;;;;;;;11.90;5.60;;;3.40;78.10;;;;;;5090854;28;20410;-78
2021/04/17 06:01:43;;;;;;;10.25;5.22;;;3.30;78.00;;;;;;5089985;28;21398;-78
2021/04/17 06:04:09;;;;;;;10.43;5.10;;;3.40;78.20;;;;;;5090988;28;20469;-78
2021/04/17 06:06:35;;;;;;;9.93;5.37;;;3.40;77.80;;;;;;5087892;28;20378;-78
2021/04/17 06:09:00;;;;;;;13.20;5.53;;;3.50;77.40;;;;;;5088421;28;20386;-78
2021/04/17 06:11:26;;;;;;;10.23;5.30;;;3.40;78.20;;;;;;5090245;28;20847;-78
2021/04/17 06:13:51;;;;;;;10.27;5.10;;;3.50;77.70;;;;;;5089678;28;20401;-78
2021/04/17 06:16:17;;;;;;;11.67;5.10;;;3.50;77.80;;;;;;5090234;28;20391;-79
2021/04/17 06:18:42;;;;;;;12.90;5.10;;;3.60;77.50;;;;;;5089365;28;20955;-78
2021/04/17 06:21:08;;;;;;;13.03;5.97;;;3.70;77.60;;;;;;5090083;28;20397;-78
2021/04/17 06:23:34;;;;;;;13.20;4.87;;;3.70;77.30;;;;;;5071695;28;20386;-79
2021/04/17 06:26:01;;;;;;;11.60;4.82;;;3.70;77.30;;;;;;5071925;28;20735;-78
2021/04/17 06:28:26;;;;;;;9.53;4.50;;;3.80;77.10;;;;;;5071272;28;20420;-79
2021/04/17 06:30:52;;;;;;;10.63;4.57;;;3.80;76.80;;;;;;5090197;28;20386;-78
2021/04/17 06:33:18;;;;;;;13.67;5.40;;;3.80;76.80;;;;;;5089237;28;20482;-78
2021/04/17 06:35:43;;;;;;;13.32;5.05;;;3.90;77.10;;;;;;5090176;28;20389;-78
2021/04/17 06:38:09;;;;;;;9.43;4.38;;;4.00;77.00;;;;;;5089106;28;20406;-78
2021/04/17 06:40:36;;;;;;;9.63;4.50;;;4.10;76.50;;;;;;5071707;28;20746;-78
2021/04/17 06:43:03;;;;;;;12.70;4.95;;;4.10;75.70;;;;;;5093116;28;20382;-77
2021/04/17 06:45:31;;;;;;;12.32;5.40;;;4.20;75.80;;;;;;5093746;28;20385;-78
2021/04/17 06:47:58;;;;;;;12.77;5.25;;;4.30;76.00;;;;;;5075631;28;20455;-78
2021/04/17 06:50:24;;;;;;;11.55;5.28;;;4.30;75.40;;;;;;5075419;28;20395;-78
2021/04/17 06:52:52;;;;;;;12.70;5.05;;;4.50;75.40;;;;;;5093813;28;20374;-79
2021/04/17 06:55:18;;;;;;;12.60;5.25;;;4.60;74.70;;;;;;5093621;28;20390;-79
2021/04/17 06:57:44;;;;;;;14.52;4.72;;;4.60;74.70;;;;;;5093475;28;20441;-79
2021/04/17 07:00:12;;;;;;;17.37;6.50;;;4.60;74.30;;;;;;5093480;28;20442;-79
2021/04/17 07:02:38;;;;;;;12.18;4.60;;;4.90;73.00;;;;;;5093812;28;20465;-79
2021/04/17 07:05:05;;;;;;;11.98;5.03;;;5.00;72.60;;;;;;5075055;28;20464;-80
2021/04/17 07:07:34;;;;;;;9.15;4.20;;;4.90;72.70;;;;;;5093079;28;20438;-80
2021/04/17 07:10:00;;;;;;;12.27;4.95;;;5.10;72.90;;;;;;5093552;28;20422;-79
2021/04/17 07:12:27;;;;;;;8.65;4.47;;;5.10;71.80;;;;;;5093314;28;20378;-80
2021/04/17 07:14:53;;;;;;;11.52;5.00;;;5.40;70.40;;;;;;5075391;28;20413;-80
2021/04/17 07:17:20;;;;;;;12.27;4.55;;;5.50;71.20;;;;;;5092655;28;20370;-79
2021/04/17 07:19:59;;;;;;;7.32;3.88;;;5.60;69.40;;;;;;5075401;28;20424;-79
2021/04/17 07:22:31;;;;;;;10.20;4.60;;;5.70;68.10;;;;;;5093398;28;20386;-80
2021/04/17 07:25:13;;;;;;;11.50;4.15;;;5.70;68.10;;;;;;5093450;28;20384;-80
2021/04/17 07:27:45;;;;;;;9.82;4.60;;;5.80;68.60;;;;;;5092582;28;20387;-80
2021/04/17 07:30:19;;;;;;;13.50;4.63;;;5.80;68.20;;;;;;5092939;28;20836;-80
2021/04/17 07:33:03;;;;;;;11.38;4.85;;;5.70;68.70;;;;;;5093196;28;20416;-80
2021/04/17 07:35:34;;;;;;;15.18;5.30;;;6.00;68.80;;;;;;5092776;28;20444;-80
2021/04/17 07:38:24;;;;;;;11.18;4.25;;;6.20;67.90;;;;;;5092840;28;20402;-79
2021/04/17 07:41:11;;;;;;;10.98;4.47;;;6.10;68.10;;;;;;5093167;28;20378;-79
2021/04/17 07:44:02;;;;;;;13.15;4.82;;;6.10;67.50;;;;;;5092763;28;20389;-79
2021/04/17 07:46:31;;;;;;;13.13;4.43;;;6.00;68.60;;;;;;5093077;28;20386;-80
2021/04/17 07:49:29;;;;;;;8.82;4.30;;;6.30;66.60;;;;;;5092250;28;20397;-79
2021/04/17 07:51:58;;;;;;;8.23;3.80;;;6.40;67.00;;;;;;5037055;28;20567;-79
2021/04/17 07:54:25;;;;;;;10.07;4.20;;;6.40;66.90;;;;;;5090655;28;20905;-80
2021/04/17 07:56:51;;;;;;;10.15;3.85;;;6.40;67.50;;;;;;5073943;28;20421;-79
2021/04/17 07:59:22;;;;;;;27.67;5.00;;;6.50;68.00;;;;;;5092771;28;20481;-79
2021/04/17 08:01:49;;;;;;;11.50;4.20;;;6.60;67.30;;;;;;5074724;28;20405;-80
2021/04/17 08:04:22;;;;;;;11.05;3.78;;;6.70;66.30;;;;;;5093336;28;20382;-79
2021/04/17 08:06:48;;;;;;;7.40;4.00;;;6.70;66.10;;;;;;5074406;28;20386;-79
2021/04/17 08:09:14;;;;;;;10.38;3.75;;;6.90;66.60;;;;;;5092790;28;20387;-80
2021/04/17 08:11:40;;;;;;;8.38;4.03;;;7.00;65.30;;;;;;5092507;28;20388;-79
2021/04/17 08:14:09;;;;;;;9.57;4.40;;;7.10;65.00;;;;;;5074493;28;20472;-79
2021/04/17 08:16:35;;;;;;;10.02;4.10;;;7.00;64.90;;;;;;5074072;28;20911;-79
2021/04/17 08:19:01;;;;;;;11.23;3.90;;;7.10;63.50;;;;;;5092562;28;20402;-79
2021/04/17 08:21:26;;;;;;;8.03;3.30;;;7.20;63.80;;;;;;5092010;28;20447;-79
2021/04/17 08:23:54;;;;;;;9.47;4.20;;;7.20;63.60;;;;;;5092088;28;20382;-79
2021/04/17 08:26:20;;;;;;;12.68;3.75;;;7.10;63.50;;;;;;5074483;28;20431;-79
2021/04/17 08:28:51;;;;;;;11.95;3.95;;;7.40;63.60;;;;;;5091884;28;20382;-78
2021/04/17 08:31:19;;;;;;;9.93;3.33;;;7.40;62.70;;;;;;5074316;28;20477;-78
2021/04/17 08:34:04;;;;;;;10.40;3.80;;;7.60;63.30;;;;;;5091901;28;20882;-79
2021/04/17 08:36:32;;;;;;;10.38;3.67;;;7.70;62.20;;;;;;5072941;28;20398;-78
2021/04/17 08:38:57;;;;;;;13.38;3.58;;;7.70;62.00;;;;;;5073984;28;20446;-80
2021/04/17 08:41:43;;;;;;;6.05;3.17;;;7.80;62.60;;;;;;5074082;28;20428;-79
2021/04/17 08:44:31;;;;;;;9.57;2.88;;;7.90;61.60;;;;;;5073537;28;20390;-79
2021/04/17 08:46:57;;;;;;;6.22;3.10;;;7.80;60.10;;;;;;5091447;28;20390;-79
2021/04/17 08:49:28;;;;;;;8.73;3.00;;;8.10;59.80;;;;;;5073948;28;20382;-79
2021/04/17 08:52:22;;;;;;;5.95;3.03;;;8.20;59.10;;;;;;5073566;28;20874;-79
2021/04/17 08:55:12;;;;;;;6.03;2.70;;;8.40;57.80;;;;;;5092082;28;20397;-80
2021/04/17 08:57:38;;;;;;;10.63;3.00;;;8.60;57.70;;;;;;5058279;28;20417;-80
2021/04/17 09:00:06;;;;;;;6.13;2.70;;;8.90;56.20;;;;;;5073573;28;20432;-79
2021/04/17 09:02:47;;;;;;;8.15;3.00;;;9.00;55.90;;;;;;5073666;28;20390;-79
2021/04/17 09:05:15;;;;;;;10.90;3.03;;;9.20;56.20;;;;;;5092489;28;20386;-83
2021/04/17 09:07:46;;;;;;;10.07;3.13;;;9.10;55.10;;;;;;5094809;28;20382;-80
2021/04/17 09:10:33;;;;;;;6.13;2.50;;;9.20;53.20;;;;;;5077756;28;20382;-82
2021/04/17 09:13:16;;;;;;;8.18;2.85;;;9.10;52.80;;;;;;5077088;28;21029;-84
2021/04/17 09:16:01;;;;;;;6.40;2.92;;;9.10;52.80;;;;;;5097758;28;20390;-81
2021/04/17 09:18:36;;;;;;;6.30;3.03;;;9.10;53.30;;;;;;5097138;28;20413;-83
2021/04/17 09:21:07;;;;;;;11.27;3.08;;;9.40;54.40;;;;;;5098156;28;20406;-82
2021/04/17 09:23:37;;;;;;;9.38;2.75;;;9.40;52.30;;;;;;5091059;28;20389;-82
2021/04/17 09:26:03;;;;;;;11.02;2.97;;;9.40;54.30;;;;;;5073309;28;20841;-82
2021/04/17 09:28:36;;;;;;;8.48;4.03;;;9.70;51.20;;;;;;5090439;28;20378;-81
2021/04/17 09:31:03;;;;;;;9.57;3.00;;;9.70;52.50;;;;;;5091569;28;20374;-83
2021/04/17 09:33:28;;;;;;;7.88;2.67;;;9.80;52.70;;;;;;5072774;28;20994;-83
2021/04/17 09:35:54;;;;;;;6.95;3.08;;;9.60;52.40;;;;;;5090844;28;20386;-81
2021/04/17 09:38:22;;;;;;;8.10;2.70;;;9.80;51.70;;;;;;5090711;28;20402;-81
2021/04/17 09:40:49;;;;;;;9.85;3.47;;;9.50;50.50;;;;;;5091028;28;20443;-81
2021/04/17 09:43:35;;;;;;;6.83;3.03;;;9.70;51.10;;;;;;5091251;28;20378;-84
2021/04/17 09:46:15;;;;;;;7.00;3.15;;;9.70;51.80;;;;;;5091353;28;20481;-84
2021/04/17 09:48:42;;;;;;;6.13;2.70;;;10.00;52.30;;;;;;5091237;28;20420;-84
2021/04/17 09:51:26;;;;;;;9.77;3.28;;;9.80;50.80;;;;;;5073128;28;20781;-83
2021/04/17 09:54:00;;;;;;;8.60;3.38;;;10.80;52.40;;;;;;5072902;28;20902;-84
2021/04/17 09:56:31;;;;;;;10.23;2.80;;;11.00;51.20;;;;;;5072996;28;20878;-82
2021/04/17 09:58:58;;;;;;;12.85;3.30;;;10.80;48.90;;;;;;5072687;28;20406;-83
2021/04/17 10:01:24;;;;;;;10.73;3.13;;;11.00;49.90;;;;;;5091677;28;20704;-83
2021/04/17 10:03:56;;;;;;;6.93;2.78;;;10.50;48.60;;;;;;5090963;28;20383;-82
2021/04/17 10:06:33;;;;;;;5.90;2.57;;;10.70;50.20;;;;;;5072901;28;20473;-78
2021/04/17 10:09:07;;;;;;;7.03;3.03;;;11.10;47.20;;;;;;5090461;28;20409;-81
2021/04/17 10:11:34;;;;;;;6.95;2.55;;;10.80;49.10;;;;;;5072620;28;20397;-80
2021/04/17 10:14:00;;;;;;;8.43;2.80;;;10.90;49.20;;;;;;5090424;28;20374;-80
2021/04/17 10:16:31;;;;;;;6.87;2.80;;;11.10;48.80;;;;;;5089647;28;20866;-80
2021/04/17 10:18:58;;;;;;;11.40;3.25;;;11.20;49.60;;;;;;5090380;28;20893;-81
2021/04/17 10:21:26;;;;;;;8.43;3.58;;;10.60;48.50;;;;;;5090336;28;20420;-80
2021/04/17 10:24:17;;;;;;;8.98;3.13;;;10.60;50.20;;;;;;5072333;28;20474;-80
2021/04/17 10:26:49;;;;;;;10.40;3.22;;;11.00;49.90;;;;;;5089638;28;20906;-81
2021/04/17 10:29:18;;;;;;;9.68;3.20;;;10.80;47.90;;;;;;5090506;28;20382;-82
2021/04/17 10:31:44;;;;;;;7.75;3.20;;;10.60;49.60;;;;;;5071964;28;20394;-80
2021/04/17 10:34:10;;;;;;;11.90;3.53;;;10.90;48.50;;;;;;5090726;28;20389;-81
2021/04/17 10:36:36;;;;;;;13.57;3.00;;;11.10;49.80;;;;;;5089833;28;20374;-81
2021/04/17 10:39:06;;;;;;;8.13;3.50;;;10.40;50.10;;;;;;5072033;28;20497;-81
2021/04/17 10:41:33;;;;;;;11.50;3.15;;;10.70;50.20;;;;;;5090326;28;20382;-82
2021/04/17 10:44:13;;;;;;;12.90;3.80;;;10.80;49.70;;;;;;5090126;28;20777;-80
2021/04/17 10:46:47;;;;;;;8.77;3.60;;;10.70;49.60;;;;;;5089927;28;20386;-81
2021/04/17 10:49:31;;;;;;;10.52;3.63;;;11.10;49.50;;;;;;5090140;28;20390;-81
2021/04/17 10:51:58;;;;;;;13.48;3.35;;;11.40;49.80;;;;;;5090309;28;20382;-81
2021/04/17 10:54:24;;;;;;;8.23;3.20;;;11.40;48.50;;;;;;5090097;28;20381;-81
2021/04/17 10:57:03;;;;;;;14.02;3.40;;;11.50;47.30;;;;;;5089262;28;20421;-79
2021/04/17 10:59:52;;;;;;;12.45;3.05;;;11.20;48.40;;;;;;5090270;28;20406;-81
2021/04/17 11:02:23;;;;;;;8.15;3.08;;;11.40;48.70;;;;;;5071723;28;20434;-81
2021/04/17 11:04:49;;;;;;;8.95;2.90;;;11.10;48.50;;;;;;5090343;28;20386;-81
2021/04/17 11:07:14;;;;;;;8.17;3.07;;;11.10;47.20;;;;;;5090123;28;20374;-81
2021/04/17 11:09:47;;;;;;;8.47;2.43;;;11.20;48.90;;;;;;5093326;28;20374;-81
2021/04/17 11:12:23;;;;;;;7.90;2.60;;;11.30;47.90;;;;;;5089721;28;20440;-81
2021/04/17 11:14:48;;;;;;;6.10;2.47;;;11.50;47.60;;;;;;5089998;28;20733;-80
2021/04/17 11:17:14;;;;;;;7.90;2.90;;;10.70;47.10;;;;;;5089687;28;20456;-81
2021/04/17 11:19:43;;;;;;;6.63;2.25;;;10.90;46.00;;;;;;5089776;28;20409;-81
2021/04/17 11:22:20;;;;;;;6.80;2.13;;;11.20;43.60;;;;;;5089830;28;20389;-81
2021/04/17 11:24:58;;;;;;;6.65;2.30;;;11.30;41.40;;;;;;5089900;28;20394;-81
2021/04/17 11:27:24;;;;;;;5.53;2.30;;;11.10;41.00;;;;;;5090077;28;20406;-81
2021/04/17 11:29:50;;;;;;;11.10;2.03;;;11.00;40.60;;;;;;5093219;28;20804;-82
2021/04/17 11:32:15;;;;;;;6.07;2.20;;;11.00;40.30;;;;;;5093567;28;20378;-82
2021/04/17 11:34:45;;;;;;;5.55;1.83;;;10.60;39.10;;;;;;5093204;28;20374;-81
2021/04/17 11:37:11;;;;;;;4.57;1.80;;;10.90;38.20;;;;;;5092223;28;20447;-81
2021/04/17 11:39:37;;;;;;;3.47;1.83;;;11.30;37.40;;;;;;5093369;28;20750;-81
2021/04/17 11:42:02;;;;;;;4.63;1.90;;;11.50;38.00;;;;;;5089461;28;20425;-81
2021/04/17 11:44:28;;;;;;;6.55;2.17;;;11.10;39.50;;;;;;5092159;28;20446;-81
2021/04/17 11:46:53;;;;;;;7.30;2.20;;;11.30;39.90;;;;;;5092675;28;20384;-81
2021/04/17 11:49:19;;;;;;;6.67;2.50;;;11.40;40.20;;;;;;5093001;28;20435;-81
2021/04/17 11:51:44;;;;;;;4.53;1.85;;;11.00;39.00;;;;;;5092026;28;20413;-81
2021/04/17 11:54:10;;;;;;;5.45;1.92;;;10.80;37.60;;;;;;5107244;28;20398;-82
2021/04/17 11:56:36;;;;;;;7.13;2.30;;;10.90;39.50;;;;;;5092600;28;20386;-83
2021/04/17 11:59:02;;;;;;;6.68;2.15;;;10.90;38.90;;;;;;5090436;28;20413;-82
2021/04/17 12:01:28;;;;;;;5.07;2.85;;;11.20;40.30;;;;;;5075547;28;20389;-84
2021/04/17 12:03:53;;;;;;;6.60;2.03;;;11.50;40.40;;;;;;5092946;28;20374;-82
2021/04/17 12:06:19;;;;;;;9.23;2.55;;;11.40;40.70;;;;;;5092284;28;20374;-84
2021/04/17 12:08:45;;;;;;;7.50;2.33;;;11.30;38.70;;;;;;5074286;28;20393;-83
2021/04/17 12:11:11;;;;;;;4.88;2.30;;;11.30;39.60;;;;;;5092889;28;20410;-83
2021/04/17 12:13:36;;;;;;;8.15;2.80;;;11.00;42.20;;;;;;5093143;28;20374;-83
2021/04/17 12:16:03;;;;;;;9.13;2.43;;;11.00;40.40;;;;;;5093198;28;20860;-83
2021/04/17 12:18:29;;;;;;;6.53;2.30;;;11.00;41.70;;;;;;5074229;28;20409;-86
2021/04/17 12:20:54;;;;;;;7.13;2.80;;;11.30;42.70;;;;;;5092823;28;20734;-85
2021/04/17 12:23:20;;;;;;;12.03;3.80;;;11.70;41.80;;;;;;5074630;28;20381;-82
2021/04/17 12:25:46;;;;;;;6.50;2.77;;;11.40;42.40;;;;;;5093367;28;20384;-86
2021/04/17 12:28:11;;;;;;;9.80;2.93;;;11.60;44.00;;;;;;5092646;28;20416;-82
2021/04/17 12:30:38;;;;;;;6.67;2.63;;;11.90;43.60;;;;;;5074259;28;20912;-81
2021/04/17 12:33:04;;;;;;;6.85;2.65;;;11.90;41.40;;;;;;5092372;28;20911;-82
2021/04/17 12:35:30;;;;;;;8.73;2.70;;;11.40;40.90;;;;;;5092859;28;20469;-82
2021/04/17 12:37:55;;;;;;;6.63;2.75;;;11.10;40.60;;;;;;5073523;28;20492;-83
2021/04/17 12:40:21;;;;;;;9.23;3.03;;;11.10;43.00;;;;;;5091556;28;20414;-83
2021/04/17 12:42:46;;;;;;;6.68;2.70;;;11.80;42.70;;;;;;5092401;28;20389;-82
2021/04/17 12:45:13;;;;;;;7.57;2.77;;;11.90;38.90;;;;;;5092079;28;20385;-81
2021/04/17 12:47:40;;;;;;;5.00;2.35;;;11.90;40.70;;;;;;5091898;28;20473;-85
2021/04/17 12:50:07;;;;;;;10.70;3.17;;;11.80;41.30;;;;;;5089953;28;20378;-83
2021/04/17 12:52:33;;;;;;;8.20;2.45;;;11.40;43.00;;;;;;5095724;28;20382;-83
2021/04/17 12:54:59;;;;;;;8.23;2.60;;;11.10;40.80;;;;;;5098106;28;20389;-83
2021/04/17 12:57:24;;;;;;;7.45;2.30;;;11.10;43.10;;;;;;5095180;28;20382;-82